createdAt,value
2023-04-18T00:00:25.160Z,0.50
2023-04-18T00:01:25.197Z,0.51
2023-04-18T00:02:25.280Z,0.50
2023-04-18T00:03:25.483Z,0.51
2023-04-18T00:04:25.426Z,0.51
2023-04-18T00:05:25.367Z,0.51
2023-04-18T00:06:25.368Z,0.52
2023-04-18T00:07:25.405Z,0.52
2023-04-18T00:08:25.461Z,0.51
2023-04-18T00:09:25.580Z,0.52
2023-04-18T00:10:25.528Z,0.52
2023-04-18T00:11:25.570Z,0.52
2023-04-18T00:12:25.602Z,0.52
2023-04-18T00:13:25.645Z,0.52
2023-04-18T00:14:25.678Z,0.51
2023-04-18T00:15:25.727Z,0.51
2023-04-18T00:16:25.773Z,0.50
2023-04-18T00:17:25.797Z,0.51
2023-04-18T00:18:25.803Z,0.51
2023-04-18T00:19:25.844Z,0.51
2023-04-18T00:20:25.889Z,0.51
2023-04-18T00:21:25.924Z,0.51
2023-04-18T00:22:25.975Z,0.51
2023-04-18T00:23:25.994Z,0.51
2023-04-18T00:24:26.043Z,0.51
2023-04-18T00:25:26.077Z,0.51
2023-04-18T00:26:26.110Z,0.51
2023-04-18T00:27:26.146Z,0.51
2023-04-18T00:28:26.186Z,0.51
2023-04-18T00:29:26.225Z,0.50
2023-04-18T00:30:26.283Z,0.51
2023-04-18T00:31:26.411Z,0.50
2023-04-18T00:32:26.354Z,0.51
2023-04-18T00:33:26.382Z,0.51
2023-04-18T00:34:26.429Z,0.50
2023-04-18T00:35:26.467Z,0.52
2023-04-18T00:36:26.509Z,0.50
2023-04-18T00:37:26.551Z,0.50
2023-04-18T00:38:26.587Z,0.51
2023-04-18T00:39:26.633Z,0.51
2023-04-18T00:40:26.673Z,0.50
2023-04-18T00:41:26.712Z,0.51
2023-04-18T00:42:26.747Z,0.51
2023-04-18T00:43:26.795Z,0.50
2023-04-18T00:44:26.823Z,0.52
2023-04-18T00:45:26.872Z,0.50
2023-04-18T00:46:26.964Z,0.51
2023-04-18T00:47:27.013Z,0.50
2023-04-18T00:48:26.992Z,0.51
2023-04-18T00:49:27.039Z,0.51
2023-04-18T00:50:27.082Z,0.51
2023-04-18T00:51:27.125Z,0.52
2023-04-18T00:52:27.252Z,0.50
2023-04-18T00:53:27.218Z,0.51
2023-04-18T00:54:27.276Z,0.51
2023-04-18T00:55:27.318Z,0.52
2023-04-18T00:56:27.365Z,0.52
2023-04-18T00:57:27.399Z,0.51
2023-04-18T00:58:27.432Z,0.52
2023-04-18T00:59:27.446Z,0.52
2023-04-18T01:00:27.525Z,0.52
2023-04-18T01:01:27.594Z,0.52
2023-04-18T01:02:27.673Z,0.52
2023-04-18T01:03:27.777Z,0.51
2023-04-18T01:04:27.787Z,0.51
2023-04-18T01:05:27.700Z,0.52
2023-04-18T01:06:27.743Z,0.51
2023-04-18T01:07:27.788Z,0.52
2023-04-18T01:08:27.824Z,0.51
2023-04-18T01:09:27.870Z,0.51
2023-04-18T01:10:27.901Z,0.51
2023-04-18T01:11:27.954Z,0.51
2023-04-18T01:12:27.998Z,0.52
2023-04-18T01:13:28.046Z,0.51
2023-04-18T01:14:28.090Z,0.51
2023-04-18T01:15:28.132Z,0.51
2023-04-18T01:16:28.357Z,0.52
2023-04-18T01:17:28.323Z,0.51
2023-04-18T01:18:28.279Z,0.51
2023-04-18T01:19:28.326Z,0.51
2023-04-18T01:20:28.370Z,0.51
2023-04-18T01:21:28.416Z,0.50
2023-04-18T01:22:28.461Z,0.51
2023-04-18T01:23:28.513Z,0.51
2023-04-18T01:24:28.555Z,0.52
2023-04-18T01:25:28.596Z,0.52
2023-04-18T01:26:28.638Z,0.51
2023-04-18T01:27:28.690Z,0.50
2023-04-18T01:28:28.717Z,0.51
2023-04-18T01:29:28.758Z,0.52
2023-04-18T01:30:28.795Z,0.51
2023-04-18T01:31:28.901Z,0.52
2023-04-18T01:32:28.914Z,0.51
2023-04-18T01:33:28.920Z,0.51
2023-04-18T01:34:28.966Z,0.53
2023-04-18T01:35:29.014Z,0.52
2023-04-18T01:36:29.053Z,0.52
2023-04-18T01:37:29.095Z,0.52
2023-04-18T01:38:29.145Z,0.52
2023-04-18T01:39:29.189Z,0.52
2023-04-18T01:40:29.225Z,0.52
2023-04-18T01:41:29.270Z,0.52
2023-04-18T01:42:29.333Z,0.51
2023-04-18T01:43:29.373Z,0.51
2023-04-18T01:44:29.414Z,0.52
2023-04-18T01:45:29.457Z,0.52
2023-04-18T01:46:29.585Z,0.52
2023-04-18T01:47:29.550Z,0.51
2023-04-18T01:48:29.599Z,0.51
2023-04-18T01:49:29.649Z,0.51
2023-04-18T01:50:29.677Z,0.51
2023-04-18T01:51:29.725Z,0.52
2023-04-18T01:52:29.772Z,0.52
2023-04-18T01:53:29.825Z,0.50
2023-04-18T01:54:29.868Z,0.51
2023-04-18T01:55:29.904Z,0.52
2023-04-18T01:56:29.950Z,0.50
2023-04-18T01:57:29.997Z,0.51
2023-04-18T01:58:30.049Z,0.51
2023-04-18T01:59:30.097Z,0.52
2023-04-18T02:00:30.176Z,0.51
2023-04-18T02:01:30.185Z,0.51
2023-04-18T02:02:30.393Z,0.51
2023-04-18T02:03:30.380Z,0.52
2023-04-18T02:04:30.313Z,0.50
2023-04-18T02:05:30.351Z,0.51
2023-04-18T02:06:30.391Z,0.51
2023-04-18T02:07:30.452Z,0.51
2023-04-18T02:08:30.459Z,0.50
2023-04-18T02:09:30.496Z,0.51
2023-04-18T02:10:30.534Z,0.51
2023-04-18T02:11:30.577Z,0.51
2023-04-18T02:12:30.616Z,0.51
2023-04-18T02:13:30.668Z,0.52
2023-04-18T02:14:30.702Z,0.50
2023-04-18T02:15:30.744Z,0.51
2023-04-18T02:16:30.836Z,0.50
2023-04-18T02:17:30.842Z,0.51
2023-04-18T02:18:30.869Z,0.52
2023-04-18T02:19:30.912Z,0.51
2023-04-18T02:20:30.955Z,0.52
2023-04-18T02:21:30.988Z,0.51
2023-04-18T02:22:31.039Z,0.51
2023-04-18T02:23:31.064Z,0.51
2023-04-18T02:24:31.093Z,0.51
2023-04-18T02:25:31.139Z,0.51
2023-04-18T02:26:31.187Z,0.52
2023-04-18T02:27:31.223Z,0.51
2023-04-18T02:28:31.254Z,0.51
2023-04-18T02:29:31.298Z,0.51
2023-04-18T02:30:31.343Z,0.51
2023-04-18T02:31:31.433Z,0.52
2023-04-18T02:32:31.499Z,0.51
2023-04-18T02:33:31.449Z,0.52
2023-04-18T02:34:31.506Z,0.52
2023-04-18T02:35:31.553Z,0.51
2023-04-18T02:36:31.586Z,0.51
2023-04-18T02:37:31.627Z,0.51
2023-04-18T02:38:31.680Z,0.52
2023-04-18T02:39:31.705Z,0.51
2023-04-18T02:40:31.765Z,0.51
2023-04-18T02:41:31.815Z,0.51
2023-04-18T02:42:31.855Z,0.51
2023-04-18T02:43:31.904Z,0.52
2023-04-18T02:44:31.963Z,0.51
2023-04-18T02:45:32.018Z,0.51
2023-04-18T02:46:32.132Z,0.52
2023-04-18T02:47:37.706Z,0.51
2023-04-18T02:48:33.130Z,0.51
2023-04-18T02:49:32.098Z,0.51
2023-04-18T02:50:32.111Z,0.52
2023-04-18T02:51:32.093Z,0.51
2023-04-18T02:52:32.150Z,0.52
2023-04-18T02:53:32.076Z,0.52
2023-04-18T02:54:32.071Z,0.51
2023-04-18T02:55:32.051Z,0.52
2023-04-18T02:56:32.045Z,0.51
2023-04-18T02:57:32.048Z,0.52
2023-04-18T02:58:32.095Z,0.51
2023-04-18T02:59:32.211Z,0.52
2023-04-18T03:00:32.196Z,0.51
2023-04-18T03:01:32.294Z,0.52
2023-04-18T03:02:32.337Z,0.51
2023-04-18T03:03:32.364Z,0.51
2023-04-18T03:04:32.407Z,0.50
2023-04-18T03:05:32.404Z,0.50
2023-04-18T03:06:32.438Z,0.51
2023-04-18T03:07:32.494Z,0.50
2023-04-18T03:08:32.527Z,0.53
2023-04-18T03:09:32.570Z,0.51
2023-04-18T03:10:32.617Z,0.51
2023-04-18T03:11:32.639Z,0.52
2023-04-18T03:12:32.681Z,0.51
2023-04-18T03:13:32.734Z,0.52
2023-04-18T03:14:32.786Z,0.51
2023-04-18T03:15:32.842Z,0.51
2023-04-18T03:16:32.871Z,0.50
2023-04-18T03:17:32.944Z,0.51
2023-04-18T03:18:32.984Z,0.51
2023-04-18T03:19:33.002Z,0.51
2023-04-18T03:20:33.048Z,0.51
2023-04-18T03:21:33.081Z,0.51
2023-04-18T03:22:33.142Z,0.51
2023-04-18T03:23:33.174Z,0.50
2023-04-18T03:24:33.384Z,0.51
2023-04-18T03:25:33.270Z,0.51
2023-04-18T03:26:33.299Z,0.51
2023-04-18T03:27:33.353Z,0.50
2023-04-18T03:28:33.404Z,0.51
2023-04-18T03:29:33.463Z,0.50
2023-04-18T03:30:33.490Z,0.50
2023-04-18T03:31:33.619Z,0.50
2023-04-18T03:32:33.610Z,0.52
2023-04-18T03:33:33.623Z,0.51
2023-04-18T03:34:33.668Z,0.51
2023-04-18T03:35:33.714Z,0.51
2023-04-18T03:36:33.752Z,0.52
2023-04-18T03:37:33.805Z,0.52
2023-04-18T03:38:33.835Z,0.51
2023-04-18T03:39:33.873Z,0.51
2023-04-18T03:40:33.943Z,0.51
2023-04-18T03:41:33.953Z,0.51
2023-04-18T03:42:33.988Z,0.51
2023-04-18T03:43:34.033Z,0.52
2023-04-18T03:44:34.065Z,0.51
2023-04-18T03:45:34.116Z,0.52
2023-04-18T03:46:34.225Z,0.51
2023-04-18T03:47:34.277Z,0.51
2023-04-18T03:48:34.240Z,0.52
2023-04-18T03:49:34.292Z,0.51
2023-04-18T03:50:34.331Z,0.51
2023-04-18T03:51:34.365Z,0.52
2023-04-18T03:52:34.898Z,0.51
2023-04-18T03:53:34.446Z,0.51
2023-04-18T03:54:34.497Z,0.51
2023-04-18T03:55:34.547Z,0.51
2023-04-18T03:56:34.576Z,0.51
2023-04-18T03:57:34.634Z,0.52
2023-04-18T03:58:34.675Z,0.50
2023-04-18T03:59:34.724Z,0.51
2023-04-18T04:00:34.763Z,0.51
2023-04-18T04:01:34.859Z,0.51
2023-04-18T04:02:35.041Z,0.50
2023-04-18T04:03:35.024Z,0.51
2023-04-18T04:04:35.009Z,0.50
2023-04-18T04:05:34.990Z,0.52
2023-04-18T04:06:35.051Z,0.52
2023-04-18T04:07:35.084Z,0.51
2023-04-18T04:08:35.127Z,0.51
2023-04-18T04:09:35.169Z,0.51
2023-04-18T04:10:35.193Z,0.52
2023-04-18T04:11:35.229Z,0.51
2023-04-18T04:12:35.339Z,0.50
2023-04-18T04:13:35.318Z,0.51
2023-04-18T04:14:35.347Z,0.51
2023-04-18T04:15:35.389Z,0.51
2023-04-18T04:16:35.464Z,0.51
2023-04-18T04:17:35.522Z,0.50
2023-04-18T04:18:35.543Z,0.50
2023-04-18T04:19:35.584Z,0.51
2023-04-18T04:20:35.628Z,0.51
2023-04-18T04:21:35.663Z,0.51
2023-04-18T04:22:35.700Z,0.51
2023-04-18T04:23:35.731Z,0.51
2023-04-18T04:24:35.781Z,0.51
2023-04-18T04:25:35.829Z,0.50
2023-04-18T04:26:35.872Z,0.51
2023-04-18T04:27:35.923Z,0.51
2023-04-18T04:28:35.981Z,0.51
2023-04-18T04:29:36.000Z,0.51
2023-04-18T04:30:36.052Z,0.51
2023-04-18T04:31:36.123Z,0.51
2023-04-18T04:32:36.163Z,0.50
2023-04-18T04:33:36.170Z,0.51
2023-04-18T04:34:36.222Z,0.51
2023-04-18T04:35:36.268Z,0.51
2023-04-18T04:36:36.303Z,0.51
2023-04-18T04:37:36.348Z,0.51
2023-04-18T04:38:36.382Z,0.50
2023-04-18T04:39:36.417Z,0.51
2023-04-18T04:40:36.471Z,0.51
2023-04-18T04:41:36.506Z,0.51
2023-04-18T04:42:36.534Z,0.51
2023-04-18T04:43:36.582Z,0.51
2023-04-18T04:44:36.627Z,0.50
2023-04-18T04:45:36.666Z,0.52
2023-04-18T04:46:36.681Z,0.51
2023-04-18T04:47:36.798Z,0.51
2023-04-18T04:48:36.777Z,0.51
2023-04-18T04:49:36.819Z,0.51
2023-04-18T04:50:36.865Z,0.51
2023-04-18T04:51:36.899Z,0.52
2023-04-18T04:52:36.958Z,0.51
2023-04-18T04:53:36.957Z,0.52
2023-04-18T04:54:37.013Z,0.51
2023-04-18T04:55:37.052Z,0.51
2023-04-18T04:56:37.897Z,0.51
2023-04-18T04:57:37.121Z,0.51
2023-04-18T04:58:37.164Z,0.51
2023-04-18T04:59:37.182Z,0.51
2023-04-18T05:00:37.221Z,0.51
2023-04-18T05:01:37.306Z,0.50
2023-04-18T05:02:37.442Z,0.51
2023-04-18T05:03:37.654Z,0.52
2023-04-18T05:04:37.561Z,0.51
2023-04-18T05:05:37.441Z,0.51
2023-04-18T05:06:40.060Z,0.51
2023-04-18T05:07:37.484Z,0.53
2023-04-18T05:08:37.477Z,0.52
2023-04-18T05:09:37.486Z,0.52
2023-04-18T05:10:37.466Z,0.51
2023-04-18T05:11:37.463Z,0.52
2023-04-18T05:12:37.465Z,0.52
2023-04-18T05:13:37.459Z,0.51
2023-04-18T05:14:37.456Z,0.51
2023-04-18T05:15:37.477Z,0.52
2023-04-18T05:16:37.491Z,0.52
2023-04-18T05:17:37.470Z,0.52
2023-04-18T05:18:37.448Z,0.53
2023-04-18T05:19:37.447Z,0.52
2023-04-18T05:20:37.444Z,0.52
2023-04-18T05:21:37.419Z,0.53
2023-04-18T05:22:37.441Z,0.56
2023-04-18T05:23:37.444Z,0.55
2023-04-18T05:24:37.421Z,0.56
2023-04-18T05:25:37.422Z,0.56
2023-04-18T05:26:37.426Z,0.58
2023-04-18T05:27:37.424Z,0.58
2023-04-18T05:28:37.429Z,0.64
2023-04-18T05:29:37.417Z,0.69
2023-04-18T05:30:37.439Z,0.68
2023-04-18T05:31:37.439Z,0.80
2023-04-18T05:32:37.427Z,0.83
2023-04-18T05:33:37.398Z,0.93
2023-04-18T05:34:38.738Z,0.98
2023-04-18T05:35:37.393Z,1.04
2023-04-18T05:36:37.375Z,1.25
2023-04-18T05:37:37.362Z,1.22
2023-04-18T05:38:37.356Z,1.20
2023-04-18T05:39:37.349Z,1.28
2023-04-18T05:40:37.338Z,1.35
2023-04-18T05:41:37.327Z,1.36
2023-04-18T05:42:37.334Z,1.39
2023-04-18T05:43:37.296Z,1.37
2023-04-18T05:44:37.285Z,1.44
2023-04-18T05:45:37.279Z,1.49
2023-04-18T05:46:37.913Z,1.58
2023-04-18T05:47:37.333Z,1.71
2023-04-18T05:48:37.235Z,1.73
2023-04-18T05:49:37.206Z,1.73
2023-04-18T05:50:37.190Z,1.89
2023-04-18T05:51:37.163Z,1.98
2023-04-18T05:52:37.161Z,1.99
2023-04-18T05:53:37.231Z,2.04
2023-04-18T05:54:37.919Z,2.10
2023-04-18T05:55:37.113Z,2.17
2023-04-18T05:56:37.097Z,1.68
2023-04-18T05:57:37.109Z,1.22
2023-04-18T05:58:37.143Z,0.97
2023-04-18T05:59:37.168Z,1.07
2023-04-18T06:00:37.199Z,1.12
2023-04-18T06:01:37.257Z,1.14
2023-04-18T06:02:37.386Z,1.19
2023-04-18T06:03:37.609Z,1.31
2023-04-18T06:04:37.602Z,1.47
2023-04-18T06:05:37.499Z,1.56
2023-04-18T06:06:37.497Z,1.61
2023-04-18T06:07:37.495Z,1.78
2023-04-18T06:08:37.536Z,1.81
2023-04-18T06:09:37.620Z,1.82
2023-04-18T06:11:37.639Z,1.95
2023-04-18T06:12:37.659Z,2.02
2023-04-18T06:13:37.690Z,2.12
2023-04-18T06:14:37.714Z,2.24
2023-04-18T06:15:37.749Z,2.34
2023-04-18T06:16:37.991Z,2.41
2023-04-18T06:17:37.873Z,2.44
2023-04-18T06:18:37.804Z,2.70
2023-04-18T06:19:37.825Z,2.84
2023-04-18T06:20:37.875Z,2.77
2023-04-18T06:21:37.854Z,2.97
2023-04-18T06:22:37.887Z,3.10
2023-04-18T06:23:37.906Z,2.98
2023-04-18T06:24:37.917Z,2.88
2023-04-18T06:25:37.948Z,2.76
2023-04-18T06:26:37.968Z,2.73
2023-04-18T06:27:38.004Z,1.81
2023-04-18T06:28:38.936Z,0.91
2023-04-18T06:29:38.122Z,0.58
2023-04-18T06:30:38.105Z,0.53
2023-04-18T06:31:38.209Z,0.61
2023-04-18T06:32:38.255Z,0.64
2023-04-18T06:33:38.270Z,0.71
2023-04-18T06:34:38.317Z,0.57
2023-04-18T06:35:38.391Z,0.57
2023-04-18T06:36:38.422Z,0.59
2023-04-18T06:37:39.446Z,0.68
2023-04-18T06:38:38.495Z,0.68
2023-04-18T06:39:38.507Z,0.68
2023-04-18T06:40:38.496Z,0.84
2023-04-18T06:41:38.541Z,0.91
2023-04-18T06:42:38.528Z,1.30
2023-04-18T06:43:38.747Z,1.29
2023-04-18T06:44:38.609Z,1.17
2023-04-18T06:45:38.837Z,1.13
2023-04-18T06:46:38.727Z,1.46
2023-04-18T06:47:38.794Z,1.54
2023-04-18T06:48:38.814Z,1.32
2023-04-18T06:49:38.850Z,1.30
2023-04-18T06:50:38.882Z,1.30
2023-04-18T06:51:38.902Z,1.33
2023-04-18T06:52:39.067Z,1.38
2023-04-18T06:53:38.950Z,1.38
2023-04-18T06:54:38.958Z,1.50
2023-04-18T06:55:38.977Z,1.55
2023-04-18T06:56:38.991Z,1.58
2023-04-18T06:57:39.001Z,1.64
2023-04-18T06:58:38.996Z,1.75
2023-04-18T06:59:38.988Z,1.74
2023-04-18T07:00:38.989Z,1.80
2023-04-18T07:01:39.015Z,1.86
2023-04-18T07:02:39.023Z,2.01
2023-04-18T07:03:38.997Z,2.11
2023-04-18T07:04:39.180Z,2.07
2023-04-18T07:05:38.960Z,2.31
2023-04-18T07:06:38.958Z,2.29
2023-04-18T07:07:38.976Z,2.42
2023-04-18T07:08:38.920Z,2.45
2023-04-18T07:09:38.910Z,2.55
2023-04-18T07:10:38.889Z,2.58
2023-04-18T07:11:38.855Z,2.52
2023-04-18T07:12:39.454Z,2.61
2023-04-18T07:13:38.909Z,3.35
2023-04-18T07:14:38.909Z,3.25
2023-04-18T07:15:38.950Z,3.48
2023-04-18T07:16:39.033Z,3.31
2023-04-18T07:17:39.048Z,3.18
2023-04-18T07:18:39.079Z,3.11
2023-04-18T07:19:39.031Z,3.24
2023-04-18T07:20:39.064Z,3.26
2023-04-18T07:21:39.083Z,3.29
2023-04-18T07:22:39.122Z,3.27
2023-04-18T07:23:39.191Z,3.24
2023-04-18T07:24:39.882Z,3.27
2023-04-18T07:25:39.193Z,3.14
2023-04-18T07:26:39.211Z,3.17
2023-04-18T07:27:39.198Z,3.20
2023-04-18T07:28:39.243Z,3.16
2023-04-18T07:29:39.247Z,3.14
2023-04-18T07:30:39.261Z,3.18
2023-04-18T07:31:39.272Z,3.15
2023-04-18T07:32:39.294Z,3.11
2023-04-18T07:33:39.289Z,3.09
2023-04-18T07:34:39.285Z,3.13
2023-04-18T07:35:39.296Z,3.07
2023-04-18T07:36:39.307Z,3.10
2023-04-18T07:37:39.317Z,3.07
2023-04-18T07:38:39.319Z,3.01
2023-04-18T07:39:39.344Z,2.98
2023-04-18T07:40:39.362Z,2.97
2023-04-18T07:41:39.352Z,2.95
2023-04-18T07:42:39.354Z,2.97
2023-04-18T07:43:39.376Z,2.95
2023-04-18T07:44:39.368Z,2.91
2023-04-18T07:45:39.375Z,2.88
2023-04-18T07:46:39.377Z,2.89
2023-04-18T07:47:39.371Z,2.86
2023-04-18T07:48:39.359Z,2.86
2023-04-18T07:49:39.369Z,2.87
2023-04-18T07:50:39.341Z,2.83
2023-04-18T07:51:39.345Z,2.82
2023-04-18T07:52:39.603Z,2.84
2023-04-18T07:53:39.332Z,2.81
2023-04-18T07:54:39.313Z,2.79
2023-04-18T07:55:39.305Z,2.77
2023-04-18T07:56:39.333Z,2.77
2023-04-18T07:57:39.274Z,2.75
2023-04-18T07:58:39.277Z,2.71
2023-04-18T07:59:40.895Z,2.70
2023-04-18T08:00:39.240Z,2.66
2023-04-18T08:01:39.235Z,2.70
2023-04-18T08:02:39.322Z,2.67
2023-04-18T08:03:39.361Z,2.61
2023-04-18T08:04:39.453Z,2.60
2023-04-18T08:05:39.258Z,2.64
2023-04-18T08:06:39.193Z,2.58
2023-04-18T08:07:39.187Z,2.59
2023-04-18T08:08:39.169Z,2.54
2023-04-18T08:09:39.159Z,2.58
2023-04-18T08:10:39.145Z,2.55
2023-04-18T08:11:39.138Z,2.50
2023-04-18T08:12:39.266Z,2.50
2023-04-18T08:13:39.111Z,2.52
2023-04-18T08:14:39.125Z,1.97
2023-04-18T08:15:39.136Z,1.21
2023-04-18T08:16:39.270Z,0.83
2023-04-18T08:17:39.281Z,0.61
2023-04-18T08:18:39.239Z,0.48
2023-04-18T08:19:39.271Z,0.45
2023-04-18T08:20:39.360Z,0.47
2023-04-18T08:21:39.387Z,0.50
2023-04-18T08:22:53.641Z,0.56
2023-04-18T08:23:40.427Z,0.55
2023-04-18T08:24:39.425Z,0.50
2023-04-18T08:25:39.405Z,0.43
2023-04-18T08:26:39.414Z,0.45
2023-04-18T08:27:39.392Z,0.37
2023-04-18T08:28:39.561Z,0.50
2023-04-18T08:29:39.380Z,0.58
2023-04-18T08:30:39.373Z,0.62
2023-04-18T08:31:39.392Z,0.71
2023-04-18T08:32:39.398Z,0.85
2023-04-18T08:33:39.324Z,0.97
2023-04-18T08:34:39.333Z,1.09
2023-04-18T08:35:39.343Z,1.18
2023-04-18T08:36:39.359Z,1.28
2023-04-18T08:37:39.359Z,1.42
2023-04-18T08:38:39.352Z,1.49
2023-04-18T08:39:39.363Z,1.59
2023-04-18T08:40:39.354Z,1.61
2023-04-18T08:41:39.336Z,1.52
2023-04-18T08:42:39.318Z,1.64
2023-04-18T08:43:39.322Z,1.73
2023-04-18T08:44:39.312Z,1.76
2023-04-18T08:45:39.354Z,1.85
2023-04-18T08:46:39.359Z,1.95
2023-04-18T08:47:39.382Z,2.08
2023-04-18T08:48:39.353Z,2.15
2023-04-18T08:49:39.364Z,2.32
2023-04-18T08:50:39.384Z,2.43
2023-04-18T08:51:39.423Z,2.44
2023-04-18T08:52:39.459Z,2.52
2023-04-18T08:53:39.495Z,2.65
2023-04-18T08:54:40.461Z,2.66
2023-04-18T08:55:39.441Z,2.70
2023-04-18T08:56:39.404Z,2.76
2023-04-18T08:57:39.454Z,2.89
2023-04-18T08:58:39.376Z,3.05
2023-04-18T08:59:39.333Z,3.04
2023-04-18T09:00:39.340Z,3.21
2023-04-18T09:01:39.357Z,3.20
2023-04-18T09:02:39.325Z,3.23
2023-04-18T09:03:39.385Z,3.25
2023-04-18T09:04:39.414Z,3.34
2023-04-18T09:05:39.333Z,3.43
2023-04-18T09:06:39.370Z,3.46
2023-04-18T09:07:39.419Z,3.59
2023-04-18T09:08:39.425Z,3.73
2023-04-18T09:09:39.454Z,3.69
2023-04-18T09:10:39.471Z,3.73
2023-04-18T09:11:39.504Z,3.80
2023-04-18T09:12:39.525Z,3.90
2023-04-18T09:13:39.538Z,3.85
2023-04-18T09:14:39.564Z,3.76
2023-04-18T09:15:39.614Z,3.89
2023-04-18T09:16:39.694Z,3.75
2023-04-18T09:17:39.684Z,3.06
2023-04-18T09:18:39.660Z,3.10
2023-04-18T09:19:39.675Z,2.96
2023-04-18T09:20:39.697Z,2.73
2023-04-18T09:21:39.725Z,2.96
2023-04-18T09:22:40.021Z,2.93
2023-04-18T09:23:39.775Z,2.92
2023-04-18T09:24:39.820Z,2.85
2023-04-18T09:25:42.601Z,2.79
2023-04-18T09:26:39.828Z,2.79
2023-04-18T09:27:39.804Z,2.61
2023-04-18T09:28:39.777Z,2.51
2023-04-18T09:29:39.764Z,2.39
2023-04-18T09:30:39.794Z,2.23
2023-04-18T09:31:39.714Z,2.12
2023-04-18T09:32:39.734Z,1.92
2023-04-18T09:33:39.643Z,1.94
2023-04-18T09:34:39.621Z,1.51
2023-04-18T09:35:39.598Z,1.67
2023-04-18T09:36:39.594Z,1.49
2023-04-18T09:37:39.549Z,1.63
2023-04-18T09:38:39.517Z,1.56
2023-04-18T09:39:39.480Z,1.42
2023-04-18T09:40:39.474Z,1.29
2023-04-18T09:41:39.451Z,1.04
2023-04-18T09:42:39.418Z,1.02
2023-04-18T09:43:39.403Z,0.92
2023-04-18T09:44:39.397Z,0.88
2023-04-18T09:45:39.350Z,0.80
2023-04-18T09:46:39.414Z,0.87
2023-04-18T09:47:39.313Z,0.77
2023-04-18T09:48:39.272Z,0.77
2023-04-18T09:49:39.255Z,0.77
2023-04-18T09:50:39.245Z,0.73
2023-04-18T09:51:39.204Z,0.70
2023-04-18T09:52:39.184Z,0.64
2023-04-18T09:53:39.167Z,0.61
2023-04-18T09:54:39.122Z,0.71
2023-04-18T09:55:39.099Z,0.76
2023-04-18T09:56:39.068Z,0.68
2023-04-18T09:57:39.044Z,0.68
2023-04-18T09:58:39.020Z,0.77
2023-04-18T09:59:39.005Z,0.80
2023-04-18T10:00:39.946Z,0.74
2023-04-18T10:01:39.012Z,0.81
2023-04-18T10:02:39.033Z,0.70
2023-04-18T10:03:38.971Z,0.76
2023-04-18T10:04:39.012Z,0.62
2023-04-18T10:05:38.920Z,0.60
2023-04-18T10:06:38.842Z,0.63
2023-04-18T10:07:39.518Z,0.55
2023-04-18T10:08:38.795Z,0.53
2023-04-18T10:09:38.799Z,0.51
2023-04-18T10:10:39.313Z,0.54
2023-04-18T10:11:38.770Z,0.54
2023-04-18T10:12:38.771Z,0.53
2023-04-18T10:13:38.743Z,0.50
2023-04-18T10:14:38.738Z,0.50
2023-04-18T10:15:38.814Z,0.51
2023-04-18T10:16:38.850Z,0.46
2023-04-18T10:17:39.206Z,0.48
2023-04-18T10:18:38.780Z,0.42
2023-04-18T10:19:38.774Z,0.44
2023-04-18T10:20:38.870Z,0.51
2023-04-18T10:21:38.807Z,0.52
2023-04-18T10:22:40.448Z,0.53
2023-04-18T10:23:38.838Z,0.68
2023-04-18T10:24:38.856Z,0.91
2023-04-18T10:25:38.874Z,1.06
2023-04-18T10:26:38.878Z,1.12
2023-04-18T10:27:38.893Z,1.21
2023-04-18T10:28:39.530Z,1.27
2023-04-18T10:29:38.900Z,1.34
2023-04-18T10:30:38.919Z,1.38
2023-04-18T10:31:39.005Z,1.40
2023-04-18T10:32:38.944Z,1.46
2023-04-18T10:33:41.024Z,1.45
2023-04-18T10:34:38.925Z,1.57
2023-04-18T10:35:40.885Z,1.53
2023-04-18T10:36:38.962Z,1.53
2023-04-18T10:37:38.947Z,1.54
2023-04-18T10:38:39.527Z,1.56
2023-04-18T10:39:39.459Z,1.61
2023-04-18T10:40:38.968Z,1.63
2023-04-18T10:41:38.975Z,1.66
2023-04-18T10:42:38.996Z,1.72
2023-04-18T10:43:38.985Z,1.72
2023-04-18T10:44:38.988Z,1.75
2023-04-18T10:45:39.001Z,1.80
2023-04-18T10:46:39.042Z,1.79
2023-04-18T10:47:39.065Z,1.83
2023-04-18T10:48:39.057Z,1.86
2023-04-18T10:49:39.023Z,1.87
2023-04-18T10:50:39.007Z,1.87
2023-04-18T10:51:39.010Z,1.89
2023-04-18T10:52:39.555Z,1.92
2023-04-18T10:53:39.046Z,1.97
2023-04-18T10:54:39.128Z,1.99
2023-04-18T10:55:39.036Z,2.00
2023-04-18T10:56:39.037Z,2.01
2023-04-18T10:57:39.032Z,2.03
2023-04-18T10:58:39.027Z,2.03
2023-04-18T10:59:39.058Z,2.10
2023-04-18T11:00:39.095Z,2.12
2023-04-18T11:01:39.119Z,2.16
2023-04-18T11:02:39.146Z,2.14
2023-04-18T11:03:39.144Z,2.16
2023-04-18T11:04:40.041Z,2.16
2023-04-18T11:05:39.016Z,2.17
2023-04-18T11:06:38.987Z,2.18
2023-04-18T11:07:38.980Z,2.21
2023-04-18T11:08:38.927Z,2.22
2023-04-18T11:09:38.923Z,2.29
2023-04-18T11:10:38.906Z,2.33
2023-04-18T11:11:38.934Z,2.35
2023-04-18T11:12:38.859Z,2.36
2023-04-18T11:13:38.826Z,2.37
2023-04-18T11:14:38.811Z,2.39
2023-04-18T11:15:38.812Z,2.41
2023-04-18T11:16:38.868Z,2.47
2023-04-18T11:17:38.790Z,2.50
2023-04-18T11:18:38.722Z,2.48
2023-04-18T11:19:38.713Z,2.50
2023-04-18T11:20:38.692Z,2.51
2023-04-18T11:21:38.660Z,2.54
2023-04-18T11:22:38.656Z,2.56
2023-04-18T11:23:38.624Z,2.55
2023-04-18T11:24:38.627Z,2.59
2023-04-18T11:25:38.598Z,2.55
2023-04-18T11:26:38.610Z,2.60
2023-04-18T11:27:38.626Z,2.60
2023-04-18T11:28:38.641Z,2.60
2023-04-18T11:29:38.653Z,2.61
2023-04-18T11:30:38.672Z,2.63
2023-04-18T11:31:38.713Z,2.66
2023-04-18T11:32:38.722Z,2.68
2023-04-18T11:33:38.719Z,2.71
2023-04-18T11:34:38.734Z,2.67
2023-04-18T11:35:38.764Z,2.76
2023-04-18T11:36:38.798Z,2.79
2023-04-18T11:37:38.794Z,2.70
2023-04-18T11:38:38.791Z,2.74
2023-04-18T11:39:38.806Z,2.79
2023-04-18T11:40:38.872Z,2.78
2023-04-18T11:41:38.824Z,2.80
2023-04-18T11:42:38.864Z,2.85
2023-04-18T11:43:38.845Z,2.83
2023-04-18T11:44:38.853Z,2.86
2023-04-18T11:45:38.902Z,2.86
2023-04-18T11:46:38.911Z,2.83
2023-04-18T11:47:38.942Z,2.82
2023-04-18T11:48:38.913Z,2.86
2023-04-18T11:49:38.952Z,2.89
2023-04-18T11:50:38.957Z,2.87
2023-04-18T11:51:39.024Z,2.84
2023-04-18T11:52:39.003Z,2.79
2023-04-18T11:53:39.030Z,2.87
2023-04-18T11:54:39.062Z,2.84
2023-04-18T11:55:39.073Z,2.85
2023-04-18T11:56:39.141Z,2.88
2023-04-18T11:57:39.126Z,2.80
2023-04-18T11:58:39.166Z,2.81
2023-04-18T11:59:39.208Z,2.86
2023-04-18T12:00:39.209Z,2.90
2023-04-18T12:01:39.216Z,2.86
2023-04-18T12:02:39.358Z,2.91
2023-04-18T12:03:39.437Z,2.87
2023-04-18T12:04:39.431Z,2.86
2023-04-18T12:05:39.498Z,2.89
2023-04-18T12:06:39.359Z,2.89
2023-04-18T12:07:39.367Z,2.95
2023-04-18T12:08:41.000Z,2.86
2023-04-18T12:09:39.377Z,2.85
2023-04-18T12:10:39.413Z,2.82
2023-04-18T12:11:39.414Z,2.88
2023-04-18T12:12:39.452Z,2.90
2023-04-18T12:13:39.458Z,2.84
2023-04-18T12:14:39.477Z,2.93
2023-04-18T12:15:39.613Z,2.88
2023-04-18T12:16:39.492Z,2.89
2023-04-18T12:17:39.582Z,2.89
2023-04-18T12:18:39.551Z,2.89
2023-04-18T12:19:39.569Z,2.85
2023-04-18T12:20:39.646Z,2.89
2023-04-18T12:21:39.606Z,2.86
2023-04-18T12:22:39.632Z,2.83
2023-04-18T12:23:39.629Z,2.83
2023-04-18T12:24:39.649Z,2.86
2023-04-18T12:25:39.696Z,2.79
2023-04-18T12:26:39.701Z,2.83
2023-04-18T12:27:39.719Z,2.79
2023-04-18T12:28:39.819Z,2.85
2023-04-18T12:29:39.774Z,2.85
2023-04-18T12:30:39.858Z,2.85
2023-04-18T12:31:39.814Z,2.87
2023-04-18T12:32:39.856Z,2.84
2023-04-18T12:33:39.861Z,2.79
2023-04-18T12:34:39.874Z,2.81
2023-04-18T12:35:39.887Z,2.81
2023-04-18T12:36:39.911Z,2.78
2023-04-18T12:37:39.941Z,2.80
2023-04-18T12:38:39.941Z,2.83
2023-04-18T12:39:39.968Z,2.80
2023-04-18T12:40:39.987Z,2.78
2023-04-18T12:41:40.028Z,2.75
2023-04-18T12:42:40.051Z,2.79
2023-04-18T12:43:40.191Z,2.75
2023-04-18T12:44:40.072Z,2.75
2023-04-18T12:45:40.080Z,2.79
2023-04-18T12:46:40.140Z,2.74
2023-04-18T12:47:40.159Z,2.73
2023-04-18T12:48:40.142Z,2.78
2023-04-18T12:49:40.168Z,2.68
2023-04-18T12:50:40.183Z,2.69
2023-04-18T12:51:40.210Z,2.71
2023-04-18T12:52:40.234Z,2.72
2023-04-18T12:53:40.255Z,2.76
2023-04-18T12:54:40.272Z,2.76
2023-04-18T12:55:40.285Z,2.67
2023-04-18T12:56:40.309Z,2.67
2023-04-18T12:57:40.356Z,2.70
2023-04-18T12:58:40.367Z,2.70
2023-04-18T12:59:40.374Z,2.68
2023-04-18T13:00:40.491Z,2.62
2023-04-18T13:01:40.441Z,2.65
2023-04-18T13:02:40.592Z,2.68
2023-04-18T13:03:40.637Z,2.65
2023-04-18T13:04:40.736Z,2.62
2023-04-18T13:05:41.089Z,2.61
2023-04-18T13:06:40.604Z,2.61
2023-04-18T13:07:40.577Z,2.56
2023-04-18T13:08:40.598Z,2.67
2023-04-18T13:09:40.614Z,2.57
2023-04-18T13:10:40.628Z,2.65
2023-04-18T13:11:40.651Z,2.62
2023-04-18T13:12:40.658Z,2.59
2023-04-18T13:13:40.697Z,2.56
2023-04-18T13:14:40.722Z,2.57
2023-04-18T13:15:40.737Z,2.60
2023-04-18T13:16:43.664Z,2.59
2023-04-18T13:17:40.775Z,2.61
2023-04-18T13:18:40.753Z,2.60
2023-04-18T13:19:40.735Z,2.59